Time;durP1;ratioP1;P1;durP2;ratioP2;P2;SDS_P1;SDS_P2;PMS_P1;PMS_P2;Temp;Humidity;BMP_temperature;BMP_pressure;BME280_temperature;BME280_humidity;BME280_pressure;Samples;Min_cycle;Max_cycle;Signal;HPM_P1;HPM_P2
2021/01/21 00:02:15;;;;;;;1.60;1.50;;;2.70;98.00;;;;;;5072137;28;21040;-65
2021/01/21 00:04:42;;;;;;;2.63;1.27;;;2.80;98.00;;;;;;5074646;28;21035;-63
2021/01/21 00:07:08;;;;;;;1.30;1.20;;;2.60;98.00;;;;;;5071187;28;20950;-65
2021/01/21 00:09:35;;;;;;;1.87;1.47;;;2.60;98.00;;;;;;5074591;28;20866;-64
2021/01/21 00:12:01;;;;;;;1.60;1.53;;;2.50;98.00;;;;;;5072145;28;20449;-64
2021/01/21 00:14:29;;;;;;;1.30;1.10;;;2.50;98.00;;;;;;5074328;28;20456;-65
2021/01/21 00:16:55;;;;;;;1.10;1.00;;;2.50;98.00;;;;;;5070934;28;20963;-64
2021/01/21 00:19:22;;;;;;;1.50;1.40;;;2.40;98.00;;;;;;5074340;28;20514;-65
2021/01/21 00:21:48;;;;;;;1.57;1.40;;;2.30;98.00;;;;;;5071647;28;20588;-64
2021/01/21 00:24:15;;;;;;;1.50;1.30;;;2.30;98.00;;;;;;5074003;28;20460;-64
2021/01/21 00:26:41;;;;;;;1.20;1.10;;;2.40;98.00;;;;;;5071755;28;20460;-65
2021/01/21 00:29:08;;;;;;;1.50;1.50;;;2.50;98.00;;;;;;5074156;28;20800;-64
2021/01/21 00:31:36;;;;;;;1.40;1.30;;;2.50;98.00;;;;;;5071982;28;20492;-64
2021/01/21 00:34:03;;;;;;;1.60;1.50;;;2.60;98.00;;;;;;5073752;28;20496;-64
2021/01/21 00:36:30;;;;;;;2.50;2.13;;;2.60;98.00;;;;;;5071239;28;20819;-64
2021/01/21 00:38:56;;;;;;;1.20;1.10;;;2.60;98.00;;;;;;5073338;28;20499;-64
2021/01/21 00:41:23;;;;;;;1.10;1.00;;;2.70;98.00;;;;;;5071143;28;20488;-65
2021/01/21 00:43:49;;;;;;;2.17;1.37;;;2.60;98.00;;;;;;5073421;28;20457;-67
2021/01/21 00:46:16;;;;;;;2.60;1.93;;;2.70;98.00;;;;;;5070757;28;20452;-66
2021/01/21 00:48:45;;;;;;;1.30;1.17;;;2.60;98.00;;;;;;5074043;28;20797;-63
2021/01/21 00:51:12;;;;;;;1.10;1.10;;;2.70;98.00;;;;;;5071080;28;20511;-64
2021/01/21 00:53:38;;;;;;;1.20;1.10;;;2.60;98.00;;;;;;5073695;28;20546;-64
2021/01/21 00:56:06;;;;;;;1.20;1.10;;;2.50;98.00;;;;;;5071730;28;20457;-64
2021/01/21 00:58:32;;;;;;;1.20;1.20;;;2.50;98.00;;;;;;5072948;28;20460;-64
2021/01/21 01:00:59;;;;;;;4.67;1.53;;;2.70;98.00;;;;;;5070988;28;20481;-66
2021/01/21 01:03:26;;;;;;;1.30;1.20;;;2.90;98.00;;;;;;5072174;28;20519;-63
2021/01/21 01:05:53;;;;;;;1.30;1.10;;;3.00;98.00;;;;;;5071037;28;20457;-65
2021/01/21 01:08:20;;;;;;;1.10;1.00;;;2.90;98.00;;;;;;5073324;28;20503;-67
2021/01/21 01:10:47;;;;;;;1.40;1.20;;;2.70;98.00;;;;;;5070883;28;20464;-64
2021/01/21 01:13:13;;;;;;;1.43;1.00;;;2.70;98.00;;;;;;5071856;28;21004;-64
2021/01/21 01:15:43;;;;;;;1.10;0.90;;;2.60;98.00;;;;;;5070820;28;20977;-64
2021/01/21 01:18:10;;;;;;;1.10;0.93;;;2.50;98.00;;;;;;5073034;28;20452;-65
2021/01/21 01:20:37;;;;;;;2.40;1.70;;;2.60;98.00;;;;;;5070905;28;20483;-64
2021/01/21 01:23:05;;;;;;;1.70;1.53;;;2.60;98.00;;;;;;5072901;28;20483;-65
2021/01/21 01:25:33;;;;;;;1.10;1.00;;;2.60;98.00;;;;;;5070932;28;20456;-64
2021/01/21 01:27:59;;;;;;;1.60;1.20;;;2.60;98.00;;;;;;5073206;28;20497;-66
2021/01/21 01:30:26;;;;;;;1.10;1.00;;;2.60;98.00;;;;;;5070637;28;20461;-64
2021/01/21 01:32:52;;;;;;;1.10;1.00;;;2.60;98.00;;;;;;5073179;28;20471;-64
2021/01/21 01:35:19;;;;;;;1.20;1.10;;;2.70;98.00;;;;;;5070701;28;20822;-65
2021/01/21 01:37:46;;;;;;;1.37;1.33;;;2.70;98.00;;;;;;5073105;28;20453;-64
2021/01/21 01:40:15;;;;;;;2.23;1.43;;;2.70;98.00;;;;;;5070785;28;20671;-65
2021/01/21 01:42:44;;;;;;;1.10;1.00;;;2.80;98.00;;;;;;5072876;28;20483;-63
2021/01/21 01:45:12;;;;;;;4.07;1.50;;;2.90;98.00;;;;;;5070439;28;20479;-64
2021/01/21 01:47:41;;;;;;;1.10;1.00;;;2.90;98.00;;;;;;5072714;28;20460;-64
2021/01/21 01:50:09;;;;;;;1.20;1.10;;;2.90;98.00;;;;;;5072711;28;20488;-65
2021/01/21 01:52:41;;;;;;;1.20;0.90;;;3.00;98.00;;;;;;5071623;28;20545;-64
2021/01/21 01:55:10;;;;;;;1.10;1.00;;;3.10;98.00;;;;;;5072489;28;20460;-64
2021/01/21 01:57:38;;;;;;;1.20;1.10;;;3.20;98.00;;;;;;5071862;28;20460;-65
2021/01/21 02:00:07;;;;;;;1.30;1.27;;;3.20;98.00;;;;;;5072231;28;20465;-64
2021/01/21 02:02:33;;;;;;;1.20;1.00;;;3.30;98.00;;;;;;5069807;28;20508;-65
2021/01/21 02:05:01;;;;;;;1.20;1.17;;;3.40;98.00;;;;;;5072312;28;20811;-64
2021/01/21 02:07:28;;;;;;;1.20;1.00;;;3.50;98.00;;;;;;5069904;28;20824;-64
2021/01/21 02:09:56;;;;;;;1.20;1.20;;;3.60;98.00;;;;;;5072147;28;20456;-65
2021/01/21 02:12:37;;;;;;;1.30;1.10;;;3.80;98.00;;;;;;5069681;28;20538;-64
2021/01/21 02:15:12;;;;;;;1.20;0.90;;;4.20;98.00;;;;;;5072037;28;20798;-64
2021/01/21 02:17:45;;;;;;;1.20;0.97;;;4.50;98.00;;;;;;5071165;28;20461;-64
2021/01/21 02:20:51;;;;;;;1.30;1.20;;;4.90;98.00;;;;;;5071634;28;20874;-65
2021/01/21 02:23:55;;;;;;;1.20;0.90;;;5.30;98.00;;;;;;5071497;28;20488;-64
2021/01/21 02:26:25;;;;;;;1.20;0.90;;;5.60;97.90;;;;;;5069851;28;20538;-65
2021/01/21 02:29:09;;;;;;;1.20;1.00;;;5.90;96.80;;;;;;5071805;28;20459;-64
2021/01/21 02:32:12;;;;;;;1.77;1.13;;;6.00;98.00;;;;;;5069302;28;20458;-64
2021/01/21 02:34:48;;;;;;;1.20;1.10;;;5.90;98.00;;;;;;5041441;28;20456;-64
2021/01/21 02:37:19;;;;;;;1.20;0.90;;;5.70;98.00;;;;;;5069669;28;20460;-65
2021/01/21 02:39:48;;;;;;;1.20;0.90;;;5.60;98.00;;;;;;5071598;28;20462;-64
2021/01/21 02:42:15;;;;;;;1.20;1.00;;;5.80;96.80;;;;;;5069589;28;20555;-65
2021/01/21 02:44:42;;;;;;;1.20;0.90;;;6.10;95.40;;;;;;5071967;28;20449;-64
2021/01/21 02:47:09;;;;;;;1.20;0.90;;;6.30;94.10;;;;;;5069429;28;20489;-65
2021/01/21 02:49:36;;;;;;;1.20;0.90;;;6.50;94.10;;;;;;5071711;28;20452;-65
2021/01/21 02:52:18;;;;;;;1.20;1.03;;;6.70;93.30;;;;;;5068185;28;20453;-64
2021/01/21 02:54:56;;;;;;;3.07;1.83;;;6.70;95.50;;;;;;5071680;28;20467;-63
2021/01/21 02:57:29;;;;;;;2.80;2.30;;;6.70;98.00;;;;;;5069201;28;20469;-66
2021/01/21 02:59:58;;;;;;;1.77;1.33;;;6.50;98.00;;;;;;5071371;28;20467;-66
2021/01/21 03:02:27;;;;;;;1.30;1.20;;;6.20;98.00;;;;;;5068847;28;20475;-65
2021/01/21 03:04:54;;;;;;;1.20;1.00;;;6.00;98.00;;;;;;5071407;28;20455;-63
2021/01/21 03:07:23;;;;;;;1.20;0.90;;;6.00;97.20;;;;;;5068881;28;20459;-65
2021/01/21 03:09:50;;;;;;;1.20;1.00;;;6.20;95.20;;;;;;5070810;28;20959;-64
2021/01/21 03:12:17;;;;;;;1.20;1.00;;;6.40;96.00;;;;;;5069273;28;20461;-64
2021/01/21 03:14:44;;;;;;;1.20;1.00;;;6.60;94.50;;;;;;5071329;28;20554;-64
2021/01/21 03:17:11;;;;;;;1.20;1.00;;;6.70;93.30;;;;;;5069128;28;20460;-65
2021/01/21 03:19:37;;;;;;;1.20;0.90;;;6.80;94.90;;;;;;5071048;28;20997;-64
2021/01/21 03:22:04;;;;;;;1.83;1.10;;;6.80;95.20;;;;;;5069121;28;20489;-64
2021/01/21 03:24:31;;;;;;;1.20;0.90;;;6.90;93.70;;;;;;5071033;28;20496;-63
2021/01/21 03:26:58;;;;;;;1.20;1.00;;;6.90;93.80;;;;;;5068999;28;20877;-64
2021/01/21 03:29:26;;;;;;;1.20;0.90;;;7.00;93.60;;;;;;5071095;28;20804;-64
2021/01/21 03:31:53;;;;;;;1.20;1.00;;;7.10;92.90;;;;;;5069202;28;20547;-64
2021/01/21 03:34:19;;;;;;;1.20;1.00;;;7.20;91.80;;;;;;5070769;28;20847;-66
2021/01/21 03:36:46;;;;;;;1.20;1.00;;;7.30;90.80;;;;;;5069040;28;20949;-64
2021/01/21 03:39:12;;;;;;;1.20;1.00;;;7.40;91.40;;;;;;5071037;28;20499;-66
2021/01/21 03:41:40;;;;;;;1.20;1.00;;;7.50;89.60;;;;;;5068972;28;21117;-67
2021/01/21 03:44:07;;;;;;;1.20;1.00;;;7.70;87.60;;;;;;5071073;28;20483;-64
2021/01/21 03:46:33;;;;;;;1.20;0.90;;;7.80;88.10;;;;;;5068957;28;20516;-64
2021/01/21 03:49:00;;;;;;;1.20;0.90;;;8.00;86.70;;;;;;5071161;28;20499;-66
2021/01/21 03:51:27;;;;;;;1.20;1.00;;;8.10;86.40;;;;;;5068893;28;20492;-64
2021/01/21 03:53:53;;;;;;;1.20;1.00;;;8.30;85.90;;;;;;5071003;28;20518;-64
2021/01/21 03:56:20;;;;;;;4.60;1.20;;;8.30;85.40;;;;;;5068172;28;20449;-64
2021/01/21 03:58:47;;;;;;;1.30;1.20;;;8.40;85.20;;;;;;5070858;28;20458;-65
2021/01/21 04:01:13;;;;;;;1.20;0.90;;;8.50;85.20;;;;;;5068548;28;20500;-65
2021/01/21 04:03:40;;;;;;;1.20;0.97;;;8.60;85.10;;;;;;5070745;28;20515;-66
2021/01/21 04:06:06;;;;;;;1.20;1.03;;;8.70;85.00;;;;;;5068800;28;20521;-64
2021/01/21 04:08:33;;;;;;;1.20;1.00;;;8.70;84.80;;;;;;5070856;28;20460;-66
2021/01/21 04:10:59;;;;;;;1.20;1.00;;;8.70;84.00;;;;;;5068339;28;20464;-66
2021/01/21 04:13:26;;;;;;;1.30;1.00;;;8.80;84.40;;;;;;5070569;28;20453;-65
2021/01/21 04:15:53;;;;;;;1.20;1.00;;;8.80;84.50;;;;;;5068530;28;20934;-66
2021/01/21 04:18:20;;;;;;;1.20;1.00;;;8.80;83.80;;;;;;5070627;28;20451;-65
2021/01/21 04:20:46;;;;;;;1.20;0.93;;;8.80;83.80;;;;;;5068750;28;20460;-65
2021/01/21 04:23:14;;;;;;;1.37;1.20;;;8.90;83.40;;;;;;5074114;28;20975;-66
2021/01/21 04:25:40;;;;;;;1.20;1.00;;;8.90;83.60;;;;;;5072127;28;20854;-65
2021/01/21 04:28:07;;;;;;;1.50;1.10;;;9.00;83.10;;;;;;5074202;28;20873;-65
2021/01/21 04:30:33;;;;;;;1.20;0.90;;;9.20;82.10;;;;;;5071997;28;20805;-65
2021/01/21 04:33:01;;;;;;;1.20;1.00;;;9.20;82.60;;;;;;5073984;28;20534;-64
2021/01/21 04:35:28;;;;;;;1.20;1.00;;;9.20;82.00;;;;;;5072744;28;20936;-65
2021/01/21 04:37:55;;;;;;;1.20;1.03;;;9.20;83.40;;;;;;5073957;28;20581;-64
2021/01/21 04:40:21;;;;;;;1.20;0.90;;;9.20;82.00;;;;;;5073868;28;20453;-65
2021/01/21 04:42:48;;;;;;;1.20;0.90;;;9.30;80.60;;;;;;5071632;28;20510;-64
2021/01/21 04:45:15;;;;;;;1.20;1.00;;;9.40;80.90;;;;;;5074000;28;20823;-65
2021/01/21 04:47:42;;;;;;;1.30;1.20;;;9.50;80.80;;;;;;5071686;28;20464;-64
2021/01/21 04:50:11;;;;;;;1.20;1.00;;;9.50;82.20;;;;;;5073938;28;20459;-66
2021/01/21 04:52:40;;;;;;;1.20;0.90;;;9.40;83.10;;;;;;5071838;28;20465;-67
2021/01/21 04:55:11;;;;;;;1.20;0.90;;;9.20;83.80;;;;;;5073911;28;20465;-64
2021/01/21 04:57:43;;;;;;;1.20;1.10;;;9.10;85.30;;;;;;5071172;28;20459;-66
2021/01/21 05:00:11;;;;;;;1.20;0.90;;;8.90;86.10;;;;;;5073494;28;20491;-67
2021/01/21 05:02:40;;;;;;;1.20;0.90;;;8.70;86.30;;;;;;5070946;28;20481;-67
2021/01/21 05:05:10;;;;;;;1.20;1.10;;;8.80;83.90;;;;;;5073630;28;20475;-65
2021/01/21 05:07:38;;;;;;;1.20;1.00;;;8.80;87.50;;;;;;5071395;28;20460;-64
2021/01/21 05:10:06;;;;;;;1.20;1.00;;;8.70;88.90;;;;;;5073212;28;20458;-64
2021/01/21 05:12:33;;;;;;;1.30;1.10;;;8.60;87.60;;;;;;5070997;28;20454;-64
2021/01/21 05:15:01;;;;;;;1.20;1.00;;;8.50;87.20;;;;;;5073248;28;20477;-66
2021/01/21 05:17:28;;;;;;;1.43;1.10;;;8.40;87.40;;;;;;5070795;28;20463;-65
2021/01/21 05:19:55;;;;;;;1.20;1.00;;;8.30;88.10;;;;;;5073230;28;20463;-66
2021/01/21 05:22:22;;;;;;;1.30;1.10;;;8.20;87.40;;;;;;5070591;28;20486;-66
2021/01/21 05:24:50;;;;;;;1.20;0.90;;;8.20;87.20;;;;;;5073134;28;20455;-65
2021/01/21 05:27:17;;;;;;;1.20;0.90;;;8.20;87.50;;;;;;5071058;28;20497;-65
2021/01/21 05:29:45;;;;;;;1.20;0.90;;;8.30;86.30;;;;;;5072952;28;20455;-64
2021/01/21 05:32:13;;;;;;;1.20;0.90;;;8.50;85.50;;;;;;5070627;28;20456;-65
2021/01/21 05:34:42;;;;;;;1.20;1.00;;;8.60;84.90;;;;;;5072894;28;20486;-66
2021/01/21 05:37:10;;;;;;;1.20;1.00;;;8.70;84.90;;;;;;5070638;28;20497;-64
2021/01/21 05:39:38;;;;;;;1.20;0.90;;;8.70;83.60;;;;;;5072724;28;20460;-65
2021/01/21 05:42:06;;;;;;;1.20;0.90;;;8.80;84.80;;;;;;5070621;28;20464;-64
2021/01/21 05:44:34;;;;;;;1.20;1.00;;;8.80;83.70;;;;;;5072574;28;20457;-66
2021/01/21 05:47:04;;;;;;;1.20;1.07;;;9.00;82.70;;;;;;5070781;28;20973;-65
2021/01/21 05:49:31;;;;;;;1.20;1.07;;;9.10;83.10;;;;;;5072878;28;20462;-66
2021/01/21 05:51:58;;;;;;;1.20;1.10;;;9.20;81.60;;;;;;5070495;28;20468;-65
2021/01/21 05:54:27;;;;;;;1.20;0.90;;;9.20;82.30;;;;;;5072793;28;20460;-67
2021/01/21 05:56:55;;;;;;;1.20;0.90;;;9.20;81.50;;;;;;5070263;28;20464;-65
2021/01/21 05:59:28;;;;;;;1.20;0.90;;;9.40;81.60;;;;;;5072328;28;20593;-66
2021/01/21 06:01:55;;;;;;;1.20;1.00;;;9.30;82.60;;;;;;5070568;28;20453;-66
2021/01/21 06:04:26;;;;;;;1.70;1.20;;;9.30;82.50;;;;;;5072368;28;20948;-65
2021/01/21 06:06:54;;;;;;;1.20;1.00;;;9.30;82.80;;;;;;5070007;28;20471;-65
2021/01/21 06:09:32;;;;;;;1.20;0.90;;;9.30;83.20;;;;;;5071670;28;20943;-65
2021/01/21 06:12:01;;;;;;;1.20;0.90;;;9.20;83.20;;;;;;5069465;28;20466;-66
2021/01/21 06:14:28;;;;;;;1.30;1.10;;;9.10;83.30;;;;;;5071409;28;20491;-67
2021/01/21 06:16:55;;;;;;;1.20;1.00;;;9.20;83.10;;;;;;5069429;28;21075;-65
2021/01/21 06:19:22;;;;;;;1.20;1.00;;;9.20;83.20;;;;;;5072154;28;20495;-65
2021/01/21 06:21:55;;;;;;;1.20;0.97;;;9.20;81.50;;;;;;5070187;28;20505;-67
2021/01/21 06:24:28;;;;;;;1.20;1.00;;;9.30;82.20;;;;;;5071928;28;20499;-65
2021/01/21 06:26:57;;;;;;;1.20;1.00;;;9.40;81.90;;;;;;5070199;28;20457;-65
2021/01/21 06:29:27;;;;;;;1.20;1.00;;;9.50;81.40;;;;;;5071843;28;20475;-66
2021/01/21 06:31:55;;;;;;;1.20;1.00;;;9.50;80.90;;;;;;5069339;28;20939;-65
2021/01/21 06:34:25;;;;;;;1.20;1.00;;;9.60;81.20;;;;;;5071769;28;20503;-66
2021/01/21 06:36:55;;;;;;;1.20;1.00;;;9.60;80.80;;;;;;5069374;28;20825;-66
2021/01/21 06:39:29;;;;;;;1.30;0.97;;;9.60;80.60;;;;;;5071824;28;20942;-65
2021/01/21 06:41:58;;;;;;;1.20;1.00;;;9.70;80.40;;;;;;5069719;28;20458;-65
2021/01/21 06:44:26;;;;;;;1.20;1.00;;;9.80;80.90;;;;;;5070855;28;20468;-66
2021/01/21 06:46:54;;;;;;;1.20;0.90;;;9.80;79.00;;;;;;5069666;28;20462;-65
2021/01/21 06:49:22;;;;;;;1.20;1.00;;;9.80;79.30;;;;;;5071702;28;20545;-65
2021/01/21 06:51:49;;;;;;;1.20;1.00;;;9.90;79.40;;;;;;5069316;28;20457;-65
2021/01/21 06:54:17;;;;;;;1.20;1.00;;;10.00;79.20;;;;;;5071659;28;20452;-67
2021/01/21 06:56:44;;;;;;;1.50;1.20;;;10.00;78.30;;;;;;5068137;28;20460;-64
2021/01/21 06:59:11;;;;;;;1.40;1.20;;;10.00;79.20;;;;;;5071553;28;20931;-67
2021/01/21 07:01:49;;;;;;;1.20;0.90;;;10.10;78.60;;;;;;5068110;28;20547;-65
2021/01/21 07:04:31;;;;;;;1.20;0.90;;;10.10;78.70;;;;;;5071637;28;20533;-67
2021/01/21 07:07:08;;;;;;;1.20;0.97;;;10.00;79.40;;;;;;5069560;28;20451;-65
2021/01/21 07:09:38;;;;;;;1.20;0.90;;;10.10;78.50;;;;;;5071470;28;20463;-65
2021/01/21 07:12:06;;;;;;;1.20;1.00;;;10.10;79.30;;;;;;5069450;28;20487;-65
2021/01/21 07:14:35;;;;;;;1.20;1.00;;;10.20;78.50;;;;;;5071458;28;20466;-66
2021/01/21 07:17:05;;;;;;;1.20;0.97;;;10.20;78.60;;;;;;5069346;28;20460;-67
2021/01/21 07:19:36;;;;;;;1.70;1.20;;;10.30;79.00;;;;;;5071289;28;20808;-64
2021/01/21 07:22:16;;;;;;;1.20;1.00;;;10.30;78.70;;;;;;5068771;28;20460;-65
2021/01/21 07:25:06;;;;;;;1.20;1.00;;;10.40;77.70;;;;;;5071142;28;20923;-65
2021/01/21 07:27:35;;;;;;;1.20;0.90;;;10.50;77.90;;;;;;5063529;28;21153;-66
2021/01/21 07:30:19;;;;;;;1.20;1.10;;;10.60;78.10;;;;;;5071189;28;20945;-67
2021/01/21 07:32:47;;;;;;;1.20;1.00;;;10.60;78.70;;;;;;5068762;28;20452;-66
2021/01/21 07:35:39;;;;;;;1.20;1.00;;;10.60;78.20;;;;;;5071190;28;20459;-66
2021/01/21 07:38:06;;;;;;;1.20;1.00;;;10.60;79.20;;;;;;5068952;28;20921;-67
2021/01/21 07:40:44;;;;;;;1.40;1.17;;;10.70;79.20;;;;;;5071056;28;20460;-66
2021/01/21 07:43:11;;;;;;;1.20;1.00;;;10.80;80.20;;;;;;5068127;28;20985;-66
2021/01/21 07:45:38;;;;;;;1.20;0.97;;;10.90;80.10;;;;;;5071018;28;20782;-66
2021/01/21 07:48:22;;;;;;;1.20;1.00;;;10.90;81.10;;;;;;5068330;28;20463;-68
2021/01/21 07:50:50;;;;;;;1.37;1.10;;;10.90;81.80;;;;;;5068486;28;20931;-65
2021/01/21 07:53:24;;;;;;;1.20;0.90;;;10.90;82.90;;;;;;5070859;28;20950;-67
2021/01/21 07:55:54;;;;;;;1.20;0.90;;;10.90;83.40;;;;;;5071011;28;20456;-66
2021/01/21 07:58:28;;;;;;;1.73;1.10;;;10.80;83.80;;;;;;5075171;28;20464;-67
2021/01/21 08:00:56;;;;;;;1.20;0.90;;;10.80;84.20;;;;;;5072464;28;20471;-67
2021/01/21 08:03:31;;;;;;;1.20;1.00;;;10.80;84.60;;;;;;5074676;28;20489;-65
2021/01/21 08:06:12;;;;;;;1.20;1.00;;;10.80;84.90;;;;;;5072248;28;20801;-66
2021/01/21 08:08:40;;;;;;;1.30;1.00;;;10.80;85.30;;;;;;5074811;28;20475;-65
2021/01/21 08:11:09;;;;;;;1.20;1.00;;;10.80;85.70;;;;;;5072407;28;20538;-67
2021/01/21 08:13:35;;;;;;;1.20;1.10;;;10.90;85.40;;;;;;5074522;28;20946;-64
2021/01/21 08:16:02;;;;;;;1.20;0.90;;;10.90;85.40;;;;;;5072404;28;20963;-65
2021/01/21 08:18:30;;;;;;;1.30;1.17;;;10.90;85.80;;;;;;5073779;28;20483;-65
2021/01/21 08:20:56;;;;;;;1.20;0.90;;;11.00;85.50;;;;;;5070679;28;20497;-65
2021/01/21 08:23:24;;;;;;;1.20;1.00;;;11.00;86.00;;;;;;5073853;28;20524;-65
2021/01/21 08:25:53;;;;;;;1.30;1.10;;;11.00;86.50;;;;;;5072412;28;20460;-67
2021/01/21 08:28:22;;;;;;;1.20;1.00;;;11.00;86.30;;;;;;5072622;28;20466;-66
2021/01/21 08:30:50;;;;;;;1.37;1.00;;;11.20;86.00;;;;;;5072774;28;20462;-66
2021/01/21 08:33:21;;;;;;;1.20;1.00;;;11.30;86.30;;;;;;5072770;28;20547;-67
2021/01/21 08:35:52;;;;;;;1.40;1.10;;;11.40;86.20;;;;;;5073481;28;20461;-66
2021/01/21 08:38:23;;;;;;;1.20;1.00;;;11.50;85.20;;;;;;5073529;28;20460;-66
2021/01/21 08:40:51;;;;;;;1.20;1.00;;;11.60;85.50;;;;;;5072476;28;20808;-65
2021/01/21 08:43:19;;;;;;;1.20;1.00;;;11.70;85.70;;;;;;5072324;28;20484;-67
2021/01/21 08:45:46;;;;;;;1.20;1.00;;;11.70;85.80;;;;;;5073348;28;20943;-67
2021/01/21 08:48:24;;;;;;;1.20;1.00;;;11.70;85.80;;;;;;5071412;28;20456;-67
2021/01/21 08:50:52;;;;;;;1.20;1.00;;;11.70;86.00;;;;;;5072410;28;20457;-66
2021/01/21 08:53:21;;;;;;;1.20;1.00;;;11.70;86.20;;;;;;5072494;28;20476;-65
2021/01/21 08:55:49;;;;;;;1.20;1.00;;;11.70;86.00;;;;;;5073236;28;20460;-65
2021/01/21 08:58:19;;;;;;;1.20;1.00;;;11.70;86.60;;;;;;5071122;28;20460;-67
2021/01/21 09:01:03;;;;;;;1.20;1.00;;;11.70;86.20;;;;;;5072646;28;20469;-68
2021/01/21 09:03:36;;;;;;;1.20;1.00;;;11.70;86.70;;;;;;5073362;28;20489;-66
2021/01/21 09:06:05;;;;;;;1.20;1.00;;;11.80;86.40;;;;;;5070658;28;20543;-68
2021/01/21 09:08:32;;;;;;;1.20;1.00;;;12.00;86.10;;;;;;5072725;28;21010;-67
2021/01/21 09:11:26;;;;;;;1.20;1.00;;;12.10;85.80;;;;;;5070424;28;20511;-66
2021/01/21 09:13:52;;;;;;;1.20;1.00;;;12.10;86.00;;;;;;5071281;28;20453;-66
2021/01/21 09:16:21;;;;;;;3.83;1.10;;;12.20;85.90;;;;;;5070898;28;20524;-66
2021/01/21 09:18:47;;;;;;;1.20;1.00;;;12.20;86.30;;;;;;5072476;28;20461;-66
2021/01/21 09:21:21;;;;;;;1.50;1.10;;;12.30;85.90;;;;;;5070273;28;20477;-65
2021/01/21 09:24:05;;;;;;;1.20;0.90;;;12.40;86.20;;;;;;5055105;28;20486;-66
2021/01/21 09:26:31;;;;;;;1.20;1.00;;;12.50;85.80;;;;;;5070761;28;20482;-65
2021/01/21 09:28:59;;;;;;;1.20;1.00;;;12.60;85.80;;;;;;5072365;28;20459;-66
2021/01/21 09:31:29;;;;;;;1.20;1.00;;;12.60;86.20;;;;;;5068794;28;20466;-66
2021/01/21 09:33:55;;;;;;;1.20;1.00;;;12.60;86.90;;;;;;5072340;28;20484;-66
2021/01/21 09:36:26;;;;;;;2.47;1.17;;;12.60;86.80;;;;;;5068855;28;20456;-65
2021/01/21 09:38:53;;;;;;;1.20;1.00;;;12.70;86.60;;;;;;5072248;28;20487;-67
2021/01/21 09:41:20;;;;;;;1.20;0.97;;;12.70;86.80;;;;;;5070004;28;20461;-67
2021/01/21 09:43:47;;;;;;;1.20;1.00;;;12.70;87.40;;;;;;5072258;28;20490;-66
2021/01/21 09:46:13;;;;;;;1.20;1.00;;;12.80;87.30;;;;;;5069855;28;20470;-66
2021/01/21 09:48:40;;;;;;;1.20;1.00;;;12.90;87.80;;;;;;5072338;28;20458;-65
2021/01/21 09:51:07;;;;;;;1.20;1.00;;;13.00;86.20;;;;;;5069573;28;20454;-67
2021/01/21 09:53:35;;;;;;;1.20;1.00;;;13.20;86.70;;;;;;5072209;28;20468;-67
2021/01/21 09:56:02;;;;;;;1.30;1.00;;;13.20;87.10;;;;;;5069877;28;20458;-67
2021/01/21 09:58:29;;;;;;;1.20;1.10;;;13.20;86.20;;;;;;5072181;28;20455;-66
2021/01/21 10:00:55;;;;;;;1.20;1.00;;;13.20;86.20;;;;;;5070465;28;20485;-66
2021/01/21 10:03:22;;;;;;;1.20;0.97;;;13.00;87.30;;;;;;5069555;28;20520;-66
2021/01/21 10:05:48;;;;;;;1.20;1.00;;;13.00;86.70;;;;;;5071975;28;20531;-66
2021/01/21 10:08:15;;;;;;;1.20;1.00;;;12.90;86.80;;;;;;5069762;28;20466;-68
2021/01/21 10:10:43;;;;;;;1.20;1.00;;;12.90;86.90;;;;;;5069463;28;21006;-66
2021/01/21 10:13:09;;;;;;;1.20;1.00;;;12.90;87.30;;;;;;5068433;28;20451;-65
2021/01/21 10:15:36;;;;;;;1.20;1.00;;;12.90;87.00;;;;;;5071826;28;20462;-66
2021/01/21 10:18:02;;;;;;;1.20;1.00;;;12.90;87.10;;;;;;5069172;28;20462;-66
2021/01/21 10:20:29;;;;;;;1.20;1.00;;;12.90;87.00;;;;;;5071456;28;20456;-65
2021/01/21 10:22:55;;;;;;;1.20;0.90;;;13.00;87.10;;;;;;5069046;28;20881;-66
2021/01/21 10:25:22;;;;;;;1.20;1.00;;;13.00;86.50;;;;;;5071402;28;20459;-65
2021/01/21 10:27:49;;;;;;;1.20;0.97;;;13.10;86.80;;;;;;5069144;28;20458;-65
2021/01/21 10:30:17;;;;;;;1.20;1.00;;;13.20;86.70;;;;;;5071227;28;20449;-66
2021/01/21 10:32:43;;;;;;;1.20;1.00;;;13.20;86.10;;;;;;5068909;28;20449;-66
2021/01/21 10:35:12;;;;;;;1.20;1.00;;;13.20;86.50;;;;;;5071183;28;20496;-66
2021/01/21 10:37:38;;;;;;;1.20;1.00;;;13.20;87.00;;;;;;5069266;28;20804;-66
2021/01/21 10:40:07;;;;;;;1.40;1.17;;;13.30;86.10;;;;;;5071016;28;20464;-66
2021/01/21 10:42:33;;;;;;;1.20;0.90;;;13.30;86.50;;;;;;5068807;28;20515;-67
2021/01/21 10:45:04;;;;;;;1.20;1.00;;;13.40;86.30;;;;;;5071414;28;20522;-66
2021/01/21 10:47:31;;;;;;;1.20;0.90;;;13.50;86.50;;;;;;5069174;28;20469;-67
2021/01/21 10:49:57;;;;;;;1.20;0.90;;;13.60;85.90;;;;;;5071263;28;20587;-67
2021/01/21 10:52:24;;;;;;;1.20;1.00;;;13.70;85.70;;;;;;5068961;28;20462;-66
2021/01/21 10:54:50;;;;;;;1.20;1.00;;;13.70;85.50;;;;;;5071293;28;20455;-65
2021/01/21 10:57:17;;;;;;;1.20;1.00;;;13.70;85.60;;;;;;5068964;28;20459;-67
2021/01/21 10:59:43;;;;;;;1.20;1.00;;;13.80;86.20;;;;;;5070541;28;20555;-67
2021/01/21 11:02:13;;;;;;;1.20;1.00;;;14.00;85.40;;;;;;5068580;28;20784;-66
2021/01/21 11:04:39;;;;;;;1.20;1.10;;;14.10;85.10;;;;;;5069929;28;20481;-65
2021/01/21 11:07:06;;;;;;;1.20;0.90;;;14.10;84.60;;;;;;5068850;28;20453;-65
2021/01/21 11:09:35;;;;;;;1.20;1.00;;;14.10;84.30;;;;;;5070763;28;20461;-66
2021/01/21 11:12:04;;;;;;;1.20;1.00;;;14.10;85.90;;;;;;5068408;28;20461;-67
2021/01/21 11:14:30;;;;;;;1.20;1.00;;;14.10;84.90;;;;;;5071005;28;20463;-67
2021/01/21 11:16:57;;;;;;;1.20;1.00;;;14.10;85.30;;;;;;5068642;28;20463;-65
2021/01/21 11:19:24;;;;;;;1.30;1.17;;;14.20;84.30;;;;;;5070625;28;20457;-67
2021/01/21 11:21:52;;;;;;;1.20;1.00;;;14.30;84.50;;;;;;5068538;28;20455;-65
2021/01/21 11:24:19;;;;;;;1.20;1.00;;;14.40;84.50;;;;;;5070896;28;20488;-66
2021/01/21 11:26:45;;;;;;;1.23;1.10;;;14.50;83.80;;;;;;5067448;28;20971;-66
2021/01/21 11:29:12;;;;;;;1.30;1.10;;;14.60;83.50;;;;;;5070555;28;20486;-65
2021/01/21 11:31:39;;;;;;;1.20;1.00;;;14.60;83.80;;;;;;5072579;28;20458;-65
2021/01/21 11:34:05;;;;;;;1.20;1.10;;;14.70;84.00;;;;;;5074840;28;20481;-66
2021/01/21 11:36:34;;;;;;;1.20;0.97;;;14.80;83.20;;;;;;5072596;28;20465;-66
2021/01/21 11:39:00;;;;;;;1.20;0.97;;;14.70;82.80;;;;;;5074366;28;20472;-65
2021/01/21 11:41:27;;;;;;;1.20;1.00;;;14.60;83.40;;;;;;5072400;28;20464;-67
2021/01/21 11:43:54;;;;;;;1.20;1.00;;;14.60;83.50;;;;;;5074569;28;20491;-66
2021/01/21 11:46:22;;;;;;;1.20;1.00;;;14.60;83.90;;;;;;5072917;28;20467;-66
2021/01/21 11:48:50;;;;;;;1.20;1.00;;;14.50;83.20;;;;;;5074292;28;20519;-67
2021/01/21 11:51:18;;;;;;;1.20;1.00;;;14.40;83.40;;;;;;5071958;28;20471;-65
2021/01/21 11:53:46;;;;;;;1.20;1.00;;;14.30;83.90;;;;;;5074626;28;20952;-66
2021/01/21 11:56:13;;;;;;;1.40;1.20;;;14.40;84.10;;;;;;5073068;28;20499;-66
2021/01/21 11:58:39;;;;;;;1.20;1.00;;;14.30;84.10;;;;;;5074600;28;20514;-68
2021/01/21 12:01:08;;;;;;;1.20;1.00;;;14.20;84.50;;;;;;5074142;28;20475;-66
2021/01/21 12:03:34;;;;;;;1.20;1.10;;;14.10;84.50;;;;;;5072266;28;20496;-66
2021/01/21 12:06:01;;;;;;;1.20;1.10;;;14.10;84.60;;;;;;5074191;28;20540;-67
2021/01/21 12:08:33;;;;;;;1.20;1.10;;;14.10;85.30;;;;;;5071873;28;20578;-66
2021/01/21 12:11:01;;;;;;;1.20;1.00;;;14.10;86.20;;;;;;5073527;28;20469;-68
2021/01/21 12:13:27;;;;;;;1.20;1.00;;;14.10;86.00;;;;;;5071346;28;21013;-67
2021/01/21 12:15:55;;;;;;;1.20;1.00;;;14.10;87.10;;;;;;5073558;28;20477;-66
2021/01/21 12:18:22;;;;;;;1.20;1.10;;;14.00;86.30;;;;;;5071525;28;20462;-66
2021/01/21 12:20:48;;;;;;;1.20;1.00;;;14.00;86.10;;;;;;5073490;28;20541;-65
2021/01/21 12:23:16;;;;;;;1.20;1.00;;;14.10;86.00;;;;;;5072029;28;20493;-67
2021/01/21 12:25:44;;;;;;;1.20;1.10;;;14.20;86.20;;;;;;5073944;28;20461;-66
2021/01/21 12:28:12;;;;;;;1.20;1.00;;;14.20;85.40;;;;;;5071745;28;20947;-66
2021/01/21 12:30:39;;;;;;;1.20;1.00;;;14.20;85.50;;;;;;5073440;28;20456;-66
2021/01/21 12:33:05;;;;;;;1.20;1.00;;;14.20;85.40;;;;;;5071281;28;20859;-68
2021/01/21 12:35:33;;;;;;;1.20;1.07;;;14.20;85.20;;;;;;5073774;28;20460;-67
2021/01/21 12:37:59;;;;;;;1.20;0.90;;;14.10;85.30;;;;;;5071361;28;20464;-68
2021/01/21 12:40:26;;;;;;;1.20;1.00;;;14.10;85.80;;;;;;5073191;28;21073;-66
2021/01/21 12:42:52;;;;;;;1.20;1.00;;;14.10;85.90;;;;;;5068015;28;20818;-65
2021/01/21 12:45:23;;;;;;;1.20;1.00;;;14.00;85.50;;;;;;5073495;28;20473;-66
2021/01/21 12:47:49;;;;;;;1.20;1.00;;;14.00;86.00;;;;;;5071399;28;20464;-67
2021/01/21 12:50:16;;;;;;;1.20;1.00;;;14.00;86.90;;;;;;5073248;28;20522;-66
2021/01/21 12:52:43;;;;;;;1.20;1.00;;;14.00;86.80;;;;;;5071182;28;20456;-67
2021/01/21 12:55:13;;;;;;;1.20;0.90;;;14.10;85.50;;;;;;5073833;28;20463;-65
2021/01/21 12:57:40;;;;;;;1.63;1.10;;;14.10;86.10;;;;;;5071727;28;20458;-65
2021/01/21 13:00:08;;;;;;;1.20;1.00;;;14.10;86.30;;;;;;5073435;28;21043;-66
2021/01/21 13:02:37;;;;;;;1.20;0.93;;;14.20;86.00;;;;;;5071186;28;20493;-67